Airport View

Enter AWOS ICAO identifier for current METAR.

ex. KFNL

KCOS 120454Z 36014G23KT 10SM FEW075 FEW160 05/M13 A3000 RMK AO2 SLP158 T00501133

12 Dec 2019 05:33

Frequency: 125.000

Phone: 719-637-9696

Other Area AWOS: KFCS - KFLY - KAFF - KMNH

TAF AMD KCOS 120235Z 1203/1224 30009KT P6SM FEW140 BKN250 FM120600 35008KT P6SM SCT250 FM121700 16008KT P6SM SCT100 BKN200